createdAt,value
2017-07-20T00:00:03.599Z,11.98
2017-07-20T00:00:31.832Z,11.98
2017-07-20T00:00:59.978Z,12
2017-07-20T00:01:28.147Z,11.98
2017-07-20T00:01:56.354Z,12.01
2017-07-20T00:02:24.411Z,11.95
2017-07-20T00:02:52.605Z,12.01
2017-07-20T00:03:20.762Z,12.03
2017-07-20T00:03:48.920Z,12.01
2017-07-20T00:04:17.067Z,11.97
2017-07-20T00:04:45.405Z,11.95
2017-07-20T00:05:13.542Z,11.98
2017-07-20T00:05:41.772Z,11.98
2017-07-20T00:06:09.907Z,11.97
2017-07-20T00:06:38.112Z,12.03
2017-07-20T00:07:06.194Z,12.08
2017-07-20T00:07:34.421Z,12.08
2017-07-20T00:08:02.445Z,12.01
2017-07-20T00:08:30.532Z,12.1
2017-07-20T00:08:58.545Z,12.05
2017-07-20T00:09:26.700Z,11.95
2017-07-20T00:09:54.922Z,12.11
2017-07-20T00:10:23.100Z,12.04
2017-07-20T00:10:51.321Z,12.07
2017-07-20T00:11:19.548Z,12.05
2017-07-20T00:11:47.890Z,11.98
2017-07-20T00:12:16.104Z,12.03
2017-07-20T00:12:44.395Z,12.05
2017-07-20T00:13:12.632Z,12.11
2017-07-20T00:13:40.858Z,12.04
2017-07-20T00:14:09.017Z,12.04
2017-07-20T00:14:37.160Z,12.08
2017-07-20T00:15:05.346Z,12.01
2017-07-20T00:15:33.595Z,12.03
2017-07-20T00:16:01.776Z,12.04
2017-07-20T00:16:29.951Z,12.03
2017-07-20T00:16:58.269Z,12.08
2017-07-20T00:17:26.527Z,12.01
2017-07-20T00:17:54.764Z,12.04
2017-07-20T00:18:22.892Z,12.03
2017-07-20T00:18:50.907Z,12
2017-07-20T00:19:19.143Z,12.03
2017-07-20T00:19:47.151Z,12.07
2017-07-20T00:20:15.400Z,12.04
2017-07-20T00:20:43.672Z,12.01
2017-07-20T00:21:11.812Z,11.97
2017-07-20T00:21:40.043Z,12
2017-07-20T00:22:08.311Z,11.98
2017-07-20T00:22:36.546Z,11.97
2017-07-20T00:23:04.689Z,12.1
2017-07-20T00:23:32.950Z,12
2017-07-20T00:24:01.093Z,12.08
2017-07-20T00:24:29.288Z,11.98
2017-07-20T00:24:57.426Z,12.01
2017-07-20T00:25:25.441Z,11.98
2017-07-20T00:25:53.698Z,11.95
2017-07-20T00:26:21.904Z,11.97
2017-07-20T00:26:50.094Z,12.07
2017-07-20T00:27:18.229Z,11.95
2017-07-20T00:27:46.460Z,11.98
2017-07-20T00:28:14.560Z,12.08
2017-07-20T00:28:42.659Z,12
2017-07-20T00:29:10.817Z,12
2017-07-20T00:29:38.882Z,11.98
2017-07-20T00:30:07.034Z,12.01
2017-07-20T00:30:35.281Z,12
2017-07-20T00:31:03.605Z,12.08
2017-07-20T00:31:31.801Z,12.04
2017-07-20T00:32:00.190Z,12.08
2017-07-20T00:32:28.305Z,11.97
2017-07-20T00:32:56.463Z,12.08
2017-07-20T00:33:24.723Z,11.97
2017-07-20T00:33:52.896Z,12.05
2017-07-20T00:34:20.959Z,12.1
2017-07-20T00:34:49.021Z,12.08
2017-07-20T00:35:17.311Z,12.1
2017-07-20T00:35:45.570Z,12.1
2017-07-20T00:36:13.754Z,12.1
2017-07-20T00:36:41.974Z,12.13
2017-07-20T00:37:10.266Z,12.1
2017-07-20T00:37:38.394Z,12.11
2017-07-20T00:38:06.639Z,12.16
2017-07-20T00:38:34.840Z,12.05
2017-07-20T00:39:02.859Z,12.11
2017-07-20T00:39:30.956Z,12.15
2017-07-20T00:39:59.106Z,12.1
2017-07-20T00:40:27.216Z,12.13
2017-07-20T00:40:55.399Z,12.11
2017-07-20T00:41:23.517Z,12.08
2017-07-20T00:41:51.644Z,12.11
2017-07-20T00:42:20.063Z,12.11
2017-07-20T00:42:48.216Z,12.16
2017-07-20T00:43:16.396Z,12.11
2017-07-20T00:43:44.631Z,12.11
2017-07-20T00:44:12.800Z,12.15
2017-07-20T00:44:41.027Z,12.11
2017-07-20T00:45:09.054Z,12.07
2017-07-20T00:45:37.213Z,12.13
2017-07-20T00:46:05.291Z,12.13
2017-07-20T00:46:33.500Z,12.1
2017-07-20T00:47:01.523Z,12.11
2017-07-20T00:47:29.780Z,12.11
2017-07-20T00:47:58.009Z,12.07
2017-07-20T00:48:26.258Z,12.11
2017-07-20T00:48:54.476Z,12.13
2017-07-20T00:49:22.644Z,12.19
2017-07-20T00:49:50.835Z,12.1
2017-07-20T00:50:19.015Z,12.13
2017-07-20T00:50:47.254Z,12.13
2017-07-20T00:51:15.409Z,12.11
2017-07-20T00:51:43.667Z,12.15
2017-07-20T00:52:12.001Z,12.15
2017-07-20T00:52:40.183Z,12.13
2017-07-20T00:53:08.388Z,12.1
2017-07-20T00:53:36.579Z,12.11
2017-07-20T00:54:04.808Z,12.13
2017-07-20T00:54:33.075Z,12.13
2017-07-20T00:55:01.322Z,12.05
2017-07-20T00:55:29.457Z,12.08
2017-07-20T00:55:57.624Z,12.13
2017-07-20T00:56:25.766Z,12.19
2017-07-20T00:56:53.948Z,12.11
2017-07-20T00:57:22.345Z,12.15
2017-07-20T00:57:50.516Z,12.11
2017-07-20T00:58:18.748Z,12.1
2017-07-20T00:58:46.974Z,12.08
2017-07-20T00:59:15.162Z,12.13
2017-07-20T00:59:43.366Z,12.08
2017-07-20T01:00:11.599Z,12.18
2017-07-20T01:00:39.830Z,12.13
2017-07-20T01:01:08.058Z,12.11
2017-07-20T01:01:36.303Z,12.16
2017-07-20T01:02:04.409Z,12.15
2017-07-20T01:02:32.577Z,12.1
2017-07-20T01:03:00.785Z,12.16
2017-07-20T01:03:29.053Z,12.15
2017-07-20T01:03:57.318Z,12.16
2017-07-20T01:04:25.589Z,12.16
2017-07-20T01:04:53.780Z,12.16
2017-07-20T01:05:22.044Z,12.15
2017-07-20T01:05:50.226Z,12.18
2017-07-20T01:06:18.437Z,12.11
2017-07-20T01:06:46.631Z,12.2
2017-07-20T01:07:15.008Z,12.18
2017-07-20T01:07:43.193Z,12.16
2017-07-20T01:08:11.381Z,12.2
2017-07-20T01:08:39.436Z,12.11
2017-07-20T01:09:07.459Z,12.16
2017-07-20T01:09:35.540Z,12.16
2017-07-20T01:10:03.637Z,12.13
2017-07-20T01:10:31.860Z,12.13
2017-07-20T01:10:59.997Z,12.19
2017-07-20T01:11:27.990Z,12.13
2017-07-20T01:11:56.105Z,12.19
2017-07-20T01:12:24.448Z,12.16
2017-07-20T01:12:52.454Z,12.15
2017-07-20T01:13:20.672Z,12.13
2017-07-20T01:13:48.763Z,12.16
2017-07-20T01:14:16.911Z,12.19
2017-07-20T01:14:44.958Z,12.19
2017-07-20T01:15:13.082Z,12.18
2017-07-20T01:15:41.170Z,12.15
2017-07-20T01:16:09.290Z,12.16
2017-07-20T01:16:37.493Z,12.16
2017-07-20T01:17:05.738Z,12.15
2017-07-20T01:17:33.942Z,12.15
2017-07-20T01:18:02.140Z,12.18
2017-07-20T01:18:30.281Z,12.23
2017-07-20T01:18:58.425Z,12.15
2017-07-20T01:19:26.451Z,12.13
2017-07-20T01:19:54.521Z,12.15
2017-07-20T01:20:22.718Z,12.13
2017-07-20T01:20:50.906Z,12.13
2017-07-20T01:21:19.040Z,12.11
2017-07-20T01:21:47.153Z,12.13
2017-07-20T01:22:15.339Z,12.13
2017-07-20T01:22:43.622Z,12.2
2017-07-20T01:23:11.701Z,12.16
2017-07-20T01:23:39.922Z,12.16
2017-07-20T01:24:08.133Z,12.13
2017-07-20T01:24:36.317Z,12.19
2017-07-20T01:25:04.327Z,12.13
2017-07-20T01:25:32.576Z,12.13
2017-07-20T01:26:00.669Z,12.15
2017-07-20T01:26:28.884Z,12.16
2017-07-20T01:26:57.025Z,12.15
2017-07-20T01:27:25.199Z,12.16
2017-07-20T01:27:53.414Z,12.19
2017-07-20T01:28:21.640Z,12.23
2017-07-20T01:28:49.746Z,12.15
2017-07-20T01:29:17.952Z,12.16
2017-07-20T01:29:46.118Z,12.18
2017-07-20T01:30:14.163Z,12.11
2017-07-20T01:30:42.306Z,12.19
2017-07-20T01:31:10.510Z,12.18
2017-07-20T01:31:38.716Z,12.18
2017-07-20T01:32:06.929Z,12.22
2017-07-20T01:32:35.276Z,12.13
2017-07-20T01:33:03.383Z,12.18
2017-07-20T01:33:31.554Z,12.13
2017-07-20T01:33:59.747Z,12.22
2017-07-20T01:34:27.858Z,12.18
2017-07-20T01:34:56.040Z,12.26
2017-07-20T01:35:24.254Z,12.18
2017-07-20T01:35:52.388Z,12.11
2017-07-20T01:36:20.483Z,12.11
2017-07-20T01:36:48.651Z,12.11
2017-07-20T01:37:16.860Z,12.08
2017-07-20T01:37:45.062Z,12.25
2017-07-20T01:38:13.264Z,12.16
2017-07-20T01:38:41.351Z,12.2
2017-07-20T01:39:09.567Z,12.22
2017-07-20T01:39:37.673Z,12.25
2017-07-20T01:40:05.870Z,12.15
2017-07-20T01:40:34.115Z,12.16
2017-07-20T01:41:02.359Z,12.16
2017-07-20T01:41:30.268Z,12.2
2017-07-20T01:41:58.474Z,12.26
2017-07-20T01:42:26.677Z,12.23
2017-07-20T01:42:55.037Z,12.26
2017-07-20T01:43:23.138Z,12.16
2017-07-20T01:43:51.228Z,12.2
2017-07-20T01:44:19.433Z,12.22
2017-07-20T01:44:47.576Z,12.26
2017-07-20T01:45:15.692Z,12.29
2017-07-20T01:45:43.937Z,12.29
2017-07-20T01:46:12.145Z,12.22
2017-07-20T01:46:40.240Z,12.22
2017-07-20T01:47:08.464Z,12.22
2017-07-20T01:47:36.552Z,12.25
2017-07-20T01:48:04.821Z,12.26
2017-07-20T01:48:33.009Z,12.28
2017-07-20T01:49:01.039Z,12.28
2017-07-20T01:49:29.153Z,12.29
2017-07-20T01:49:57.321Z,12.22
2017-07-20T01:50:25.459Z,12.29
2017-07-20T01:50:53.621Z,12.33
2017-07-20T01:51:21.726Z,12.25
2017-07-20T01:51:49.891Z,12.23
2017-07-20T01:52:18.051Z,12.28
2017-07-20T01:52:46.370Z,12.13
2017-07-20T01:53:14.403Z,12.26
2017-07-20T01:53:42.626Z,12.23
2017-07-20T01:54:10.747Z,12.25
2017-07-20T01:54:38.895Z,12.29
2017-07-20T01:55:06.986Z,12.26
2017-07-20T01:55:35.220Z,12.26
2017-07-20T01:56:03.462Z,12.28
2017-07-20T01:56:31.643Z,12.26
2017-07-20T01:56:59.798Z,12.22
2017-07-20T01:57:27.977Z,12.23
2017-07-20T01:57:56.252Z,12.16
2017-07-20T01:58:24.355Z,12.16
2017-07-20T01:58:52.452Z,12.28
2017-07-20T01:59:20.619Z,12.15
2017-07-20T01:59:48.839Z,12.28
2017-07-20T02:00:17.044Z,12.26
2017-07-20T02:00:45.133Z,12.25
2017-07-20T02:01:13.230Z,12.29
2017-07-20T02:01:41.475Z,12.19
2017-07-20T02:02:09.535Z,12.19
2017-07-20T02:02:37.726Z,12.23
2017-07-20T02:03:06.028Z,12.16
2017-07-20T02:03:34.026Z,12.22
2017-07-20T02:04:02.227Z,12.19
2017-07-20T02:04:30.464Z,12.16
2017-07-20T02:04:58.665Z,12.25
2017-07-20T02:05:26.836Z,12.23
2017-07-20T02:05:54.944Z,12.16
2017-07-20T02:06:23.072Z,12.18
2017-07-20T02:06:51.152Z,12.16
2017-07-20T02:07:19.295Z,12.26
2017-07-20T02:07:47.596Z,12.26
2017-07-20T02:08:15.757Z,12.19
2017-07-20T02:08:43.781Z,12.23
2017-07-20T02:09:11.946Z,12.25
2017-07-20T02:09:40.158Z,12.16
2017-07-20T02:10:08.260Z,12.13
2017-07-20T02:10:36.351Z,12.18
2017-07-20T02:11:04.478Z,12.15
2017-07-20T02:11:32.567Z,12.2
2017-07-20T02:12:00.708Z,12.13
2017-07-20T02:12:28.783Z,12.25
2017-07-20T02:12:57.095Z,12.16
2017-07-20T02:13:25.184Z,12.19
2017-07-20T02:13:53.288Z,12.22
2017-07-20T02:14:21.489Z,12.23
2017-07-20T02:14:49.661Z,12.26
2017-07-20T02:15:17.711Z,12.23
2017-07-20T02:15:45.913Z,12.19
2017-07-20T02:16:14.047Z,12.22
2017-07-20T02:16:42.261Z,12.13
2017-07-20T02:17:10.415Z,12.16
2017-07-20T02:17:38.535Z,12.2
2017-07-20T02:18:06.702Z,12.11
2017-07-20T02:18:34.829Z,12.18
2017-07-20T02:19:02.959Z,12.15
2017-07-20T02:19:31.077Z,12.16
2017-07-20T02:19:59.321Z,12.15
2017-07-20T02:20:27.484Z,12.16
2017-07-20T02:20:55.662Z,12.13
2017-07-20T02:21:23.838Z,12.19
2017-07-20T02:21:52.039Z,12.16
2017-07-20T02:22:20.220Z,12.16
2017-07-20T02:22:48.209Z,12.26
2017-07-20T02:23:16.492Z,12.22
2017-07-20T02:23:44.566Z,12.23
2017-07-20T02:24:12.689Z,12.2
2017-07-20T02:24:40.878Z,12.22
2017-07-20T02:25:08.989Z,12.16
2017-07-20T02:25:37.105Z,12.16
2017-07-20T02:26:05.321Z,12.26
2017-07-20T02:26:33.358Z,12.18
2017-07-20T02:27:01.368Z,12.18
2017-07-20T02:27:29.558Z,12.16
2017-07-20T02:27:57.799Z,12.26
2017-07-20T02:28:26.068Z,12.15
2017-07-20T02:28:54.268Z,12.25
2017-07-20T02:29:22.403Z,12.16
2017-07-20T02:29:50.507Z,12.13
2017-07-20T02:30:18.613Z,12.13
2017-07-20T02:30:46.786Z,12.18
2017-07-20T02:31:15.017Z,12.26
2017-07-20T02:31:43.253Z,12.22
2017-07-20T02:32:11.445Z,12.15
2017-07-20T02:32:39.520Z,12.11
2017-07-20T02:33:07.783Z,12.15
2017-07-20T02:33:36.020Z,12.13
2017-07-20T02:34:04.236Z,12.16
2017-07-20T02:34:32.463Z,12.13
2017-07-20T02:35:00.555Z,12.23
2017-07-20T02:35:28.630Z,12.18
2017-07-20T02:35:56.784Z,12.16
2017-07-20T02:36:24.915Z,12.23
2017-07-20T02:36:53.088Z,12.13
2017-07-20T02:37:21.174Z,12.16
2017-07-20T02:37:49.364Z,12.25
2017-07-20T02:38:17.719Z,12.19
2017-07-20T02:38:45.908Z,12.23
2017-07-20T02:39:14.007Z,12.22
2017-07-20T02:39:42.070Z,12.26
2017-07-20T02:40:10.269Z,12.28
2017-07-20T02:40:38.292Z,12.22
2017-07-20T02:41:06.521Z,12.25
2017-07-20T02:41:34.670Z,12.19
2017-07-20T02:42:02.790Z,12.28
2017-07-20T02:42:30.925Z,12.28
2017-07-20T02:42:59.135Z,12.28
2017-07-20T02:43:27.376Z,12.26
2017-07-20T02:43:55.540Z,12.26
2017-07-20T02:44:24.065Z,12.28
2017-07-20T02:44:53.404Z,12.23
2017-07-20T02:45:21.630Z,12.19
2017-07-20T02:45:49.838Z,12.23
2017-07-20T02:46:17.809Z,12.29
2017-07-20T02:46:46.005Z,12.28
2017-07-20T02:47:14.110Z,12.29
2017-07-20T02:47:42.319Z,12.28
2017-07-20T02:48:10.422Z,12.28
2017-07-20T02:48:38.556Z,12.19
2017-07-20T02:49:06.728Z,12.26
2017-07-20T02:49:34.835Z,12.26
2017-07-20T02:50:03.056Z,12.28
2017-07-20T02:50:31.186Z,12.26
2017-07-20T02:50:59.434Z,12.33
2017-07-20T02:51:27.666Z,12.2
2017-07-20T02:51:55.891Z,12.31
2017-07-20T02:52:23.991Z,12.28
2017-07-20T02:52:52.165Z,12.26
2017-07-20T02:53:20.315Z,12.26
2017-07-20T02:53:48.502Z,12.29
2017-07-20T02:54:16.617Z,12.28
2017-07-20T02:54:47.086Z,12.19
2017-07-20T02:55:15.286Z,12.29
2017-07-20T02:55:44.533Z,12.29
2017-07-20T02:56:12.810Z,12.22
2017-07-20T02:56:41.065Z,12.29
2017-07-20T02:57:09.107Z,12.26
2017-07-20T02:57:37.570Z,12.26
2017-07-20T02:58:05.691Z,12.29
2017-07-20T02:58:33.940Z,12.29
2017-07-20T02:59:02.037Z,12.15
2017-07-20T02:59:30.150Z,12.16
2017-07-20T02:59:58.372Z,12.18
2017-07-20T03:00:26.549Z,12.26
2017-07-20T03:00:54.681Z,12.22
2017-07-20T03:01:23.167Z,12.28
2017-07-20T03:01:51.467Z,12.22
2017-07-20T03:02:19.494Z,12.29
2017-07-20T03:02:47.550Z,12.29
2017-07-20T03:03:16.993Z,12.23
2017-07-20T03:03:45.415Z,12.29
2017-07-20T03:04:13.693Z,12.2
2017-07-20T03:04:41.895Z,12.23
2017-07-20T03:05:10.041Z,12.26
2017-07-20T03:05:38.196Z,12.26
2017-07-20T03:06:06.191Z,12.33
2017-07-20T03:06:34.313Z,12.29
2017-07-20T03:07:02.430Z,12.26
2017-07-20T03:07:30.534Z,12.26
2017-07-20T03:07:58.739Z,12.28
2017-07-20T03:08:26.913Z,12.28
2017-07-20T03:08:54.980Z,12.28
2017-07-20T03:09:23.217Z,12.23
2017-07-20T03:09:51.472Z,12.26
2017-07-20T03:10:19.488Z,12.29
2017-07-20T03:10:47.575Z,12.29
2017-07-20T03:11:15.642Z,12.26
2017-07-20T03:11:43.668Z,12.22
2017-07-20T03:12:11.755Z,12.22
2017-07-20T03:12:39.830Z,12.28
2017-07-20T03:13:08.098Z,12.16
2017-07-20T03:13:36.211Z,12.18
2017-07-20T03:14:04.477Z,12.19
2017-07-20T03:14:32.633Z,12.16
2017-07-20T03:15:00.640Z,12.29
2017-07-20T03:15:28.726Z,12.28
2017-07-20T03:15:56.855Z,12.16
2017-07-20T03:16:24.968Z,12.16
2017-07-20T03:16:53.059Z,12.26
2017-07-20T03:17:21.187Z,12.26
2017-07-20T03:17:49.368Z,12.25
2017-07-20T03:18:17.422Z,12.23
2017-07-20T03:18:45.532Z,12.22
2017-07-20T03:19:13.522Z,12.28
2017-07-20T03:19:41.618Z,12.29
2017-07-20T03:20:09.728Z,12.23
2017-07-20T03:20:37.817Z,12.2
2017-07-20T03:21:06.021Z,12.29
2017-07-20T03:21:34.116Z,12.25
2017-07-20T03:22:02.176Z,12.22
2017-07-20T03:22:30.202Z,12.23
2017-07-20T03:22:58.372Z,12.29
2017-07-20T03:23:26.493Z,12.29
2017-07-20T03:23:54.733Z,12.31
2017-07-20T03:24:22.734Z,12.25
2017-07-20T03:24:50.623Z,12.22
2017-07-20T03:25:18.730Z,12.25
2017-07-20T03:25:46.952Z,12.23
2017-07-20T03:26:15.147Z,12.28
2017-07-20T03:26:43.391Z,12.28
2017-07-20T03:27:11.620Z,12.25
2017-07-20T03:27:39.608Z,12.22
2017-07-20T03:28:07.808Z,12.26
2017-07-20T03:28:35.644Z,12.23
2017-07-20T03:29:03.931Z,12.2
2017-07-20T03:29:32.130Z,12.29
2017-07-20T03:30:00.229Z,12.29
2017-07-20T03:30:28.449Z,12.36
2017-07-20T03:30:56.639Z,12.29
2017-07-20T03:31:24.805Z,12.25
2017-07-20T03:31:52.810Z,12.26
2017-07-20T03:32:21.053Z,12.34
2017-07-20T03:32:49.074Z,12.26
2017-07-20T03:33:17.313Z,12.33
2017-07-20T03:33:45.350Z,12.25
2017-07-20T03:34:13.600Z,12.23
2017-07-20T03:34:41.722Z,12.26
2017-07-20T03:35:09.883Z,12.33
2017-07-20T03:35:38.011Z,12.38
2017-07-20T03:36:06.215Z,12.25
2017-07-20T03:36:34.355Z,12.33
2017-07-20T03:37:02.353Z,12.22
2017-07-20T03:37:30.391Z,12.29
2017-07-20T03:37:58.600Z,12.31
2017-07-20T03:38:26.804Z,12.34
2017-07-20T03:38:54.730Z,12.37
2017-07-20T03:39:22.965Z,12.31
2017-07-20T03:39:51.152Z,12.26
2017-07-20T03:40:19.194Z,12.23
2017-07-20T03:40:47.381Z,12.31
2017-07-20T03:41:15.588Z,12.23
2017-07-20T03:41:43.664Z,12.33
2017-07-20T03:42:11.847Z,12.33
2017-07-20T03:42:39.949Z,12.36
2017-07-20T03:43:07.998Z,12.29
2017-07-20T03:43:36.189Z,12.22
2017-07-20T03:44:04.400Z,12.29
2017-07-20T03:44:32.480Z,12.37
2017-07-20T03:45:00.695Z,12.37
2017-07-20T03:45:28.772Z,12.34
2017-07-20T03:45:56.974Z,12.31
2017-07-20T03:46:25.087Z,12.37
2017-07-20T03:46:53.197Z,12.4
2017-07-20T03:47:21.299Z,12.38
2017-07-20T03:47:49.250Z,12.31
2017-07-20T03:48:17.271Z,12.31
2017-07-20T03:48:45.409Z,12.31
2017-07-20T03:49:13.775Z,12.33
2017-07-20T03:49:41.908Z,12.34
2017-07-20T03:50:10.064Z,12.33
2017-07-20T03:50:38.309Z,12.33
2017-07-20T03:51:06.201Z,12.41
2017-07-20T03:51:34.174Z,12.34
2017-07-20T03:52:02.248Z,12.4
2017-07-20T03:52:30.398Z,12.29
2017-07-20T03:52:58.594Z,12.37
2017-07-20T03:53:26.653Z,12.31
2017-07-20T03:53:54.828Z,12.36
2017-07-20T03:54:23.052Z,12.41
2017-07-20T03:54:51.045Z,12.34
2017-07-20T03:55:19.211Z,12.36
2017-07-20T03:55:47.431Z,12.38
2017-07-20T03:56:15.514Z,12.34
2017-07-20T03:56:43.642Z,12.41
2017-07-20T03:57:11.816Z,12.34
2017-07-20T03:57:40.008Z,12.36
2017-07-20T03:58:08.121Z,12.34
2017-07-20T03:58:36.212Z,12.4
2017-07-20T03:59:04.459Z,12.43
2017-07-20T03:59:32.762Z,12.41
2017-07-20T04:00:00.912Z,12.43
2017-07-20T04:00:28.928Z,12.43
2017-07-20T04:00:56.980Z,12.45
2017-07-20T04:01:25.090Z,12.38
2017-07-20T04:01:53.254Z,12.44
2017-07-20T04:02:21.481Z,12.44
2017-07-20T04:02:49.614Z,12.48
2017-07-20T04:03:17.857Z,12.45
2017-07-20T04:03:46.057Z,12.41
2017-07-20T04:04:14.116Z,12.47
2017-07-20T04:04:42.328Z,12.4
2017-07-20T04:05:10.514Z,12.43
2017-07-20T04:05:38.596Z,12.44
2017-07-20T04:06:06.803Z,12.47
2017-07-20T04:06:34.852Z,12.43
2017-07-20T04:07:02.878Z,12.44
2017-07-20T04:07:31.106Z,12.51
2017-07-20T04:07:59.220Z,12.45
2017-07-20T04:08:27.451Z,12.47
2017-07-20T04:08:55.573Z,12.47
2017-07-20T04:09:23.765Z,12.41
2017-07-20T04:09:51.886Z,12.52
2017-07-20T04:10:19.893Z,12.45
2017-07-20T04:10:48.104Z,12.48
2017-07-20T04:11:16.256Z,12.45
2017-07-20T04:11:44.361Z,12.48
2017-07-20T04:12:12.535Z,12.48
2017-07-20T04:12:40.747Z,12.43
2017-07-20T04:13:08.747Z,12.48
2017-07-20T04:13:36.952Z,12.43
2017-07-20T04:14:05.018Z,12.45
2017-07-20T04:14:33.265Z,12.43
2017-07-20T04:15:01.351Z,12.48
2017-07-20T04:15:29.404Z,12.44
2017-07-20T04:15:57.507Z,12.44
2017-07-20T04:16:25.751Z,12.48
2017-07-20T04:16:53.812Z,12.51
2017-07-20T04:17:22.011Z,12.47
2017-07-20T04:17:50.271Z,12.45
2017-07-20T04:18:18.488Z,12.47
2017-07-20T04:18:46.741Z,12.47
2017-07-20T04:19:14.961Z,12.44
2017-07-20T04:19:43.161Z,12.4
2017-07-20T04:20:11.206Z,12.48
2017-07-20T04:20:39.433Z,12.47
2017-07-20T04:21:07.532Z,12.45
2017-07-20T04:21:35.708Z,12.47
2017-07-20T04:22:03.889Z,12.52
2017-07-20T04:22:32.029Z,12.52
2017-07-20T04:23:00.244Z,12.51
2017-07-20T04:23:28.364Z,12.53
2017-07-20T04:23:56.560Z,12.51
2017-07-20T04:24:24.763Z,12.48
2017-07-20T04:24:52.914Z,12.51
2017-07-20T04:25:20.995Z,12.52
2017-07-20T04:25:49.121Z,12.51
2017-07-20T04:26:17.322Z,12.53
2017-07-20T04:26:45.444Z,12.55
2017-07-20T04:27:13.631Z,12.51
2017-07-20T04:27:41.800Z,12.51
2017-07-20T04:28:09.674Z,12.47
2017-07-20T04:28:37.697Z,12.52
2017-07-20T04:29:05.977Z,12.48
2017-07-20T04:29:34.007Z,12.53
2017-07-20T04:30:02.154Z,12.51
2017-07-20T04:30:30.333Z,12.47
2017-07-20T04:30:58.493Z,12.43
2017-07-20T04:31:26.605Z,12.48
2017-07-20T04:31:56.442Z,12.52
2017-07-20T04:32:25.333Z,12.48
2017-07-20T04:32:53.378Z,12.51
2017-07-20T04:33:21.474Z,12.51
2017-07-20T04:33:49.519Z,12.47
2017-07-20T04:34:17.572Z,12.44
2017-07-20T04:34:45.804Z,12.51
2017-07-20T04:35:14.087Z,12.45
2017-07-20T04:35:42.141Z,12.45
2017-07-20T04:36:10.229Z,12.59
2017-07-20T04:36:38.477Z,12.55
2017-07-20T04:37:06.473Z,12.47
2017-07-20T04:37:34.683Z,12.44
2017-07-20T04:38:02.881Z,12.56
2017-07-20T04:38:31.105Z,12.44
2017-07-20T04:38:59.204Z,12.53
2017-07-20T04:39:27.216Z,12.45
2017-07-20T04:39:55.508Z,12.52
2017-07-20T04:40:23.556Z,12.45
2017-07-20T04:40:51.525Z,12.47
2017-07-20T04:41:19.760Z,12.47
2017-07-20T04:41:47.859Z,12.65
2017-07-20T04:42:16.103Z,12.45
2017-07-20T04:42:44.346Z,12.51
2017-07-20T04:43:12.462Z,12.52
2017-07-20T04:43:40.760Z,12.53
2017-07-20T04:44:10.494Z,12.53
2017-07-20T04:44:38.593Z,12.47
2017-07-20T04:45:06.774Z,12.48
2017-07-20T04:45:34.840Z,12.51
2017-07-20T04:46:03.083Z,12.44
2017-07-20T04:46:31.265Z,12.48
2017-07-20T04:46:59.451Z,12.48
2017-07-20T04:47:27.534Z,12.51
2017-07-20T04:47:55.489Z,12.44
2017-07-20T04:48:23.516Z,12.55
2017-07-20T04:48:51.652Z,12.62
2017-07-20T04:49:19.861Z,12.52
2017-07-20T04:49:47.951Z,12.52
2017-07-20T04:50:15.987Z,12.48
2017-07-20T04:50:44.256Z,12.45
2017-07-20T04:51:12.368Z,12.47
2017-07-20T04:51:40.468Z,12.45
2017-07-20T04:52:08.677Z,12.56
2017-07-20T04:52:36.768Z,12.44
2017-07-20T04:53:04.889Z,12.51
2017-07-20T04:53:33.034Z,12.51
2017-07-20T04:54:01.259Z,12.53
2017-07-20T04:54:29.385Z,12.53
2017-07-20T04:54:57.595Z,12.55
2017-07-20T04:55:25.748Z,12.52
2017-07-20T04:55:53.960Z,12.53
2017-07-20T04:56:22.099Z,12.48
2017-07-20T04:56:50.336Z,12.56
2017-07-20T04:57:18.337Z,12.44
2017-07-20T04:57:46.508Z,12.48
2017-07-20T04:58:14.727Z,12.52
2017-07-20T04:58:42.948Z,12.47
2017-07-20T04:59:11.054Z,12.45
2017-07-20T04:59:39.053Z,12.51
2017-07-20T05:00:07.341Z,12.55
2017-07-20T05:00:35.482Z,12.53
2017-07-20T05:01:03.561Z,12.51
2017-07-20T05:01:31.615Z,12.43
2017-07-20T05:01:59.727Z,12.53
2017-07-20T05:02:27.767Z,12.53
2017-07-20T05:02:55.772Z,12.45
2017-07-20T05:03:23.863Z,12.51
2017-07-20T05:03:52.064Z,12.53
2017-07-20T05:04:20.170Z,12.52
2017-07-20T05:04:48.263Z,12.51
2017-07-20T05:05:16.311Z,12.56
2017-07-20T05:05:44.452Z,12.44
2017-07-20T05:06:12.449Z,12.52
2017-07-20T05:06:40.652Z,12.45
2017-07-20T05:07:08.847Z,12.47
2017-07-20T05:07:37.036Z,12.53
2017-07-20T05:08:05.245Z,12.51
2017-07-20T05:08:33.429Z,12.48
2017-07-20T05:09:01.383Z,12.53
2017-07-20T05:09:29.570Z,12.48
2017-07-20T05:09:57.804Z,12.52
2017-07-20T05:10:25.957Z,12.55
2017-07-20T05:10:53.903Z,12.41
2017-07-20T05:11:22.140Z,12.52
2017-07-20T05:11:50.337Z,12.55
2017-07-20T05:12:18.526Z,12.48
2017-07-20T05:12:46.734Z,12.48
2017-07-20T05:13:14.934Z,12.48
2017-07-20T05:13:43.168Z,12.51
2017-07-20T05:14:11.285Z,12.53
2017-07-20T05:14:39.470Z,12.52
2017-07-20T05:15:07.820Z,12.53
2017-07-20T05:15:36.026Z,12.48
2017-07-20T05:16:04.246Z,12.45
2017-07-20T05:16:32.493Z,12.53
2017-07-20T05:17:00.649Z,12.56
2017-07-20T05:17:28.590Z,12.45
2017-07-20T05:17:56.883Z,12.47
2017-07-20T05:18:25.067Z,12.53
2017-07-20T05:18:53.265Z,12.56
2017-07-20T05:19:21.355Z,12.51
2017-07-20T05:19:49.541Z,12.52
2017-07-20T05:20:17.841Z,12.52
2017-07-20T05:20:45.942Z,12.51
2017-07-20T05:21:14.118Z,12.47
2017-07-20T05:21:42.062Z,12.47
2017-07-20T05:22:10.163Z,12.56
2017-07-20T05:22:38.405Z,12.55
2017-07-20T05:23:06.667Z,12.48
2017-07-20T05:23:34.863Z,12.51
2017-07-20T05:24:03.052Z,12.43
2017-07-20T05:24:31.253Z,12.51
2017-07-20T05:24:59.492Z,12.48
2017-07-20T05:25:27.707Z,12.45
2017-07-20T05:25:55.898Z,12.52
2017-07-20T05:26:24.036Z,12.47
2017-07-20T05:26:52.278Z,12.52
2017-07-20T05:27:20.492Z,12.53
2017-07-20T05:27:48.510Z,12.48
2017-07-20T05:28:16.711Z,12.44
2017-07-20T05:28:44.932Z,12.52
2017-07-20T05:29:12.950Z,12.48
2017-07-20T05:29:41.025Z,12.52
2017-07-20T05:30:09.101Z,12.52
2017-07-20T05:30:37.376Z,12.48
2017-07-20T05:31:05.497Z,12.48
2017-07-20T05:31:33.712Z,12.52
2017-07-20T05:32:01.855Z,12.51
2017-07-20T05:32:29.900Z,12.45
2017-07-20T05:32:58.121Z,12.47
2017-07-20T05:33:26.326Z,12.51
2017-07-20T05:33:54.559Z,12.47
2017-07-20T05:34:22.775Z,12.45
2017-07-20T05:34:51.016Z,12.51
2017-07-20T05:35:19.232Z,12.52
2017-07-20T05:35:47.678Z,12.45
2017-07-20T05:36:15.929Z,12.55
2017-07-20T05:36:44.098Z,12.45
2017-07-20T05:37:12.186Z,12.51
2017-07-20T05:37:40.391Z,12.52
2017-07-20T05:38:08.660Z,12.48
2017-07-20T05:38:36.889Z,12.45
2017-07-20T05:39:05.042Z,12.53
2017-07-20T05:39:33.167Z,12.48
2017-07-20T05:40:01.178Z,12.48
2017-07-20T05:40:29.336Z,12.45
2017-07-20T05:40:57.543Z,12.51
2017-07-20T05:41:25.775Z,12.55
2017-07-20T05:41:53.794Z,12.52
2017-07-20T05:42:21.993Z,12.55
2017-07-20T05:42:50.220Z,12.48
2017-07-20T05:43:18.392Z,12.48
2017-07-20T05:43:46.572Z,12.52
2017-07-20T05:44:14.710Z,12.47
2017-07-20T05:44:42.729Z,12.52
2017-07-20T05:45:10.840Z,12.45
2017-07-20T05:45:39.037Z,12.45
2017-07-20T05:46:07.183Z,12.51
2017-07-20T05:46:35.094Z,12.61
2017-07-20T05:47:03.240Z,12.51
2017-07-20T05:47:31.484Z,12.48
2017-07-20T05:47:59.694Z,12.61
2017-07-20T05:48:27.743Z,12.53
2017-07-20T05:48:55.953Z,12.58
2017-07-20T05:49:24.058Z,12.61
2017-07-20T05:49:52.252Z,12.58
2017-07-20T05:50:20.452Z,12.61
2017-07-20T05:50:48.729Z,12.55
2017-07-20T05:51:16.874Z,12.55
2017-07-20T05:51:44.874Z,12.56
2017-07-20T05:52:13.066Z,12.52
2017-07-20T05:52:41.088Z,12.56
2017-07-20T05:53:09.293Z,12.48
2017-07-20T05:53:37.361Z,12.55
2017-07-20T05:54:05.287Z,12.48
2017-07-20T05:54:33.399Z,12.53
2017-07-20T05:55:01.417Z,12.53
2017-07-20T05:55:29.548Z,12.53
2017-07-20T05:55:57.668Z,12.48
2017-07-20T05:56:25.876Z,12.45
2017-07-20T05:56:53.972Z,12.52
2017-07-20T05:57:22.183Z,12.47
2017-07-20T05:57:50.423Z,12.45
2017-07-20T05:58:18.517Z,12.51
2017-07-20T05:58:46.538Z,12.48
2017-07-20T05:59:14.668Z,12.47
2017-07-20T05:59:42.902Z,12.45
2017-07-20T06:00:10.937Z,12.47
2017-07-20T06:00:39.418Z,12.62
2017-07-20T06:01:07.633Z,12.58
2017-07-20T06:01:35.797Z,12.62
2017-07-20T06:02:04.032Z,12.56
2017-07-20T06:02:32.135Z,12.55
2017-07-20T06:03:00.209Z,12.56
2017-07-20T06:03:28.475Z,12.52